createdAt,value
2023-12-13T00:00:59.818Z,95772.75
2023-12-13T00:03:27.058Z,95776.38
2023-12-13T00:05:53.927Z,95774.38
2023-12-13T00:08:22.012Z,95776.19
2023-12-13T00:10:49.007Z,95768.09
2023-12-13T00:13:16.372Z,95765.63
2023-12-13T00:15:43.110Z,95750.97
2023-12-13T00:18:10.856Z,95761.34
2023-12-13T00:20:39.092Z,95750.97
2023-12-13T00:23:08.818Z,95751.63
2023-12-13T00:25:35.542Z,95759.53
2023-12-13T00:28:02.395Z,95750.97
2023-12-13T00:30:29.212Z,95751.44
2023-12-13T00:32:56.142Z,95759.38
2023-12-13T00:35:22.873Z,95753.59
2023-12-13T00:37:49.702Z,95765.34
2023-12-13T00:40:22.639Z,95775.38
2023-12-13T00:42:50.304Z,95778.19
2023-12-13T00:45:17.153Z,95776.25
2023-12-13T00:47:44.504Z,95791.56
2023-12-13T00:50:14.193Z,95802.78
2023-12-13T00:52:40.969Z,95795.06
2023-12-13T00:55:09.441Z,95789.66
2023-12-13T00:57:36.721Z,95791.47
2023-12-13T01:00:03.962Z,95785.84
2023-12-13T01:02:30.766Z,95785.03
2023-12-13T01:04:57.861Z,95793.47
2023-12-13T01:07:24.786Z,95792.63
2023-12-13T01:09:54.546Z,95798.09
2023-12-13T01:12:21.429Z,95801.38
2023-12-13T01:14:48.154Z,95798.41
2023-12-13T01:17:16.342Z,95803.31
2023-12-13T01:19:44.058Z,95795.72
2023-12-13T01:22:11.002Z,95806.09
2023-12-13T01:24:38.494Z,95799.66
2023-12-13T01:27:06.773Z,95800.50
2023-12-13T01:29:33.494Z,95805.94
2023-12-13T01:32:00.494Z,95809.25
2023-12-13T01:34:27.532Z,95793.25
2023-12-13T01:36:54.239Z,95795.38
2023-12-13T01:39:21.118Z,95793.06
2023-12-13T01:41:47.833Z,95787.16
2023-12-13T01:44:14.602Z,95782.50
2023-12-13T01:46:44.079Z,95792.91
2023-12-13T01:49:14.925Z,95803.47
2023-12-13T01:51:46.204Z,95795.38
2023-12-13T01:54:17.653Z,95798.00
2023-12-13T01:56:48.726Z,95795.53
2023-12-13T01:59:18.135Z,95794.06
2023-12-13T02:01:47.946Z,95790.44
2023-12-13T02:04:17.861Z,95788.63
2023-12-13T02:06:44.709Z,95779.53
2023-12-13T02:09:12.199Z,95785.63
2023-12-13T02:11:39.110Z,95794.38
2023-12-13T02:14:05.954Z,95794.38
2023-12-13T02:16:34.105Z,95790.44
2023-12-13T02:19:03.329Z,95798.81
2023-12-13T02:21:31.435Z,95800.16
2023-12-13T02:24:04.704Z,95799.34
2023-12-13T02:26:32.099Z,95781.22
2023-12-13T02:29:00.342Z,95780.69
2023-12-13T02:31:31.572Z,95781.88
2023-12-13T02:33:58.570Z,95786.16
2023-12-13T02:36:27.794Z,95790.59
2023-12-13T02:38:54.568Z,95778.22
2023-12-13T02:41:21.402Z,95787.97
2023-12-13T02:43:48.210Z,95787.97
2023-12-13T02:46:16.200Z,95784.50
2023-12-13T02:48:43.032Z,95786.81
2023-12-13T02:51:10.198Z,95788.78
2023-12-13T02:53:39.422Z,95781.03
2023-12-13T02:56:06.538Z,95788.78
2023-12-13T02:58:33.414Z,95789.31
2023-12-13T03:01:00.219Z,95788.31
2023-12-13T03:03:29.869Z,95785.50
2023-12-13T03:05:56.618Z,95784.69
2023-12-13T03:08:23.433Z,95778.56
2023-12-13T03:10:50.249Z,95784.50
2023-12-13T03:13:19.897Z,95778.94
2023-12-13T03:15:46.874Z,95778.75
2023-12-13T03:18:13.854Z,95766.38
2023-12-13T03:20:40.885Z,95769.66
2023-12-13T03:23:09.614Z,95770.66
2023-12-13T03:25:36.412Z,95768.19
2023-12-13T03:28:03.831Z,95768.84
2023-12-13T03:30:32.023Z,95772.81
2023-12-13T03:32:58.925Z,95765.56
2023-12-13T03:35:27.079Z,95758.81
2023-12-13T03:37:53.851Z,95769.19
2023-12-13T03:40:20.807Z,95758.34
2023-12-13T03:42:50.559Z,95760.63
2023-12-13T03:45:22.145Z,95767.53
2023-12-13T03:47:49.274Z,95751.72
2023-12-13T03:50:19.155Z,95751.22
2023-12-13T03:52:48.594Z,95746.78
2023-12-13T03:55:15.558Z,95762.09
2023-12-13T03:57:46.763Z,95761.44
2023-12-13T04:00:13.734Z,95758.97
2023-12-13T04:02:40.553Z,95746.94
2023-12-13T04:05:10.346Z,95755.34
2023-12-13T04:07:37.771Z,95751.22
2023-12-13T04:10:08.615Z,95739.84
2023-12-13T04:12:35.444Z,95747.44
2023-12-13T04:15:05.160Z,95747.59
2023-12-13T04:17:32.328Z,95739.03
2023-12-13T04:20:00.222Z,95747.94
2023-12-13T04:22:27.333Z,95744.31
2023-12-13T04:24:54.323Z,95741.03
2023-12-13T04:27:23.173Z,95753.22
2023-12-13T04:29:50.105Z,95753.22
2023-12-13T04:32:16.905Z,95761.31
2023-12-13T04:34:43.853Z,95754.03
2023-12-13T04:37:10.861Z,95747.47
2023-12-13T04:39:40.568Z,95759.31
2023-12-13T04:42:07.873Z,95745.31
2023-12-13T04:44:34.643Z,95753.88
2023-12-13T04:47:04.382Z,95742.03
2023-12-13T04:49:34.890Z,95742.66
2023-12-13T04:52:01.689Z,95744.31
2023-12-13T04:54:28.460Z,95737.75
2023-12-13T04:56:55.192Z,95738.56
2023-12-13T04:59:22.252Z,95737.75
2023-12-13T05:01:49.093Z,95738.56
2023-12-13T05:04:16.044Z,95742.19
2023-12-13T05:06:46.011Z,95750.94
2023-12-13T05:09:19.633Z,95743.19
2023-12-13T05:11:46.649Z,95746.66
2023-12-13T05:14:13.466Z,95745.34
2023-12-13T05:16:40.275Z,95741.06
2023-12-13T05:19:07.023Z,95740.41
2023-12-13T05:21:33.880Z,95743.72
2023-12-13T05:24:00.644Z,95739.91
2023-12-13T05:26:28.694Z,95722.13
2023-12-13T05:28:55.530Z,95731.16
2023-12-13T05:31:24.531Z,95734.78
2023-12-13T05:33:54.147Z,95727.53
2023-12-13T05:36:21.567Z,95725.59
2023-12-13T05:38:48.386Z,95718.31
2023-12-13T05:41:19.439Z,95716.69
2023-12-13T05:43:46.164Z,95717.03
2023-12-13T05:46:15.837Z,95713.03
2023-12-13T05:48:42.982Z,95714.16
2023-12-13T05:51:09.860Z,95730.34
2023-12-13T05:53:38.866Z,95730.00
2023-12-13T05:56:06.277Z,95738.09
2023-12-13T05:58:35.705Z,95731.81
2023-12-13T06:01:02.495Z,95732.81
2023-12-13T06:03:29.641Z,95731.34
2023-12-13T06:05:57.282Z,95737.25
2023-12-13T06:08:24.288Z,95737.25
2023-12-13T06:10:51.073Z,95735.44
2023-12-13T06:13:19.147Z,95730.34
2023-12-13T06:15:46.987Z,95734.78
2023-12-13T06:18:14.560Z,95730.34
2023-12-13T06:20:41.396Z,95720.59
2023-12-13T06:23:16.873Z,95721.78
2023-12-13T06:25:46.932Z,95710.69
2023-12-13T06:28:13.697Z,95702.66
2023-12-13T06:30:40.574Z,95709.06
2023-12-13T06:33:09.196Z,95703.59
2023-12-13T06:35:37.581Z,95701.31
2023-12-13T06:38:04.534Z,95708.41
2023-12-13T06:40:31.495Z,95710.06
2023-12-13T06:43:01.194Z,95714.50
2023-12-13T06:45:28.002Z,95713.69
2023-12-13T06:47:54.823Z,95706.94
2023-12-13T06:50:22.900Z,95705.94
2023-12-13T06:52:50.522Z,95700.19
2023-12-13T06:55:17.472Z,95704.94
2023-12-13T06:57:44.244Z,95714.69
2023-12-13T07:00:11.517Z,95718.97
2023-12-13T07:02:41.447Z,95713.38
2023-12-13T07:05:11.909Z,95706.78
2023-12-13T07:07:39.057Z,95716.31
2023-12-13T07:10:06.505Z,95718.97
2023-12-13T07:12:33.837Z,95725.25
2023-12-13T07:15:00.716Z,95712.38
2023-12-13T07:17:27.615Z,95720.78
2023-12-13T07:19:54.460Z,95713.88
2023-12-13T07:22:21.380Z,95712.38
2023-12-13T07:24:48.534Z,95713.03
2023-12-13T07:27:15.512Z,95712.03
2023-12-13T07:29:52.612Z,95700.66
2023-12-13T07:32:19.402Z,95716.31
2023-12-13T07:34:46.282Z,95712.03
2023-12-13T07:37:16.689Z,95695.22
2023-12-13T07:39:43.938Z,95693.56
2023-12-13T07:42:10.815Z,95689.28
2023-12-13T07:44:37.702Z,95693.41
2023-12-13T07:47:04.843Z,95690.75
2023-12-13T07:49:32.218Z,95688.94
2023-12-13T07:51:59.585Z,95692.59
2023-12-13T07:54:26.445Z,95686.31
2023-12-13T07:56:54.780Z,95684.50
2023-12-13T07:59:22.382Z,95694.69
2023-12-13T08:01:49.820Z,95690.13
2023-12-13T08:04:17.218Z,95686.66
2023-12-13T08:06:44.879Z,95706.41
2023-12-13T08:09:12.102Z,95704.78
2023-12-13T08:11:42.008Z,95702.13
2023-12-13T08:14:12.058Z,95713.16
2023-12-13T08:16:39.284Z,95715.00
2023-12-13T08:19:06.262Z,95712.34
2023-12-13T08:21:33.228Z,95721.25
2023-12-13T08:24:00.363Z,95720.09
2023-12-13T08:26:27.305Z,95709.53
2023-12-13T08:29:04.849Z,95713.66
2023-12-13T08:31:37.226Z,95710.19
2023-12-13T08:34:04.497Z,95711.81
2023-12-13T08:36:31.399Z,95706.38
2023-12-13T08:38:58.452Z,95703.56
2023-12-13T08:41:25.857Z,95698.59
2023-12-13T08:43:54.147Z,95687.19
2023-12-13T08:46:20.931Z,95687.03
2023-12-13T08:48:48.159Z,95676.66
2023-12-13T08:51:15.001Z,95684.69
2023-12-13T08:53:42.122Z,95678.53
2023-12-13T08:56:11.154Z,95676.34
2023-12-13T08:58:38.196Z,95679.81
2023-12-13T09:01:05.213Z,95663.31
2023-12-13T09:03:33.923Z,95670.31
2023-12-13T09:06:01.252Z,95662.91
2023-12-13T09:08:28.083Z,95649.94
2023-12-13T09:10:54.850Z,95656.28
2023-12-13T09:13:21.665Z,95664.22
2023-12-13T09:15:48.436Z,95656.09
2023-12-13T09:18:15.442Z,95663.31
2023-12-13T09:20:42.330Z,95651.47
2023-12-13T09:23:11.731Z,95659.03
2023-12-13T09:25:38.486Z,95654.94
2023-12-13T09:28:05.303Z,95663.22
2023-12-13T09:30:32.137Z,95657.28
2023-12-13T09:32:59.017Z,95656.00
2023-12-13T09:35:26.246Z,95653.00
2023-12-13T09:37:53.468Z,95654.09
2023-12-13T09:40:20.880Z,95660.69
2023-12-13T09:42:49.805Z,95662.78
2023-12-13T09:45:22.881Z,95669.00
2023-12-13T09:47:52.630Z,95667.28
2023-12-13T09:50:22.373Z,95678.41
2023-12-13T09:52:50.574Z,95666.13
2023-12-13T09:55:17.701Z,95670.88
2023-12-13T09:57:44.668Z,95667.41
2023-12-13T10:00:15.120Z,95658.94
2023-12-13T10:02:42.040Z,95661.69
2023-12-13T10:05:15.436Z,95668.59
2023-12-13T10:07:42.393Z,95659.56
2023-12-13T10:10:10.080Z,95654.84
2023-12-13T10:12:38.858Z,95655.19
2023-12-13T10:15:13.150Z,95652.91
2023-12-13T10:17:42.366Z,95647.00
2023-12-13T10:20:10.812Z,95652.91
2023-12-13T10:22:40.908Z,95648.00
2023-12-13T10:25:08.371Z,95648.00
2023-12-13T10:27:35.417Z,95649.81
2023-12-13T10:30:03.441Z,95650.63
2023-12-13T10:32:30.417Z,95646.53
2023-12-13T10:34:57.886Z,95651.81
2023-12-13T10:37:28.940Z,95650.34
2023-12-13T10:39:58.891Z,95645.06
2023-12-13T10:42:27.290Z,95637.31
2023-12-13T10:44:54.982Z,95640.59
2023-12-13T10:47:28.083Z,95644.25
2023-12-13T10:49:57.397Z,95635.69
2023-12-13T10:52:27.808Z,95630.41
2023-12-13T10:54:54.930Z,95633.50
2023-12-13T10:57:22.469Z,95628.41
2023-12-13T10:59:50.199Z,95624.28
2023-12-13T11:02:20.518Z,95626.75
2023-12-13T11:04:49.038Z,95630.56
2023-12-13T11:07:22.025Z,95633.22
2023-12-13T11:09:51.488Z,95636.88
2023-12-13T11:12:21.764Z,95636.03
2023-12-13T11:14:53.469Z,95634.41
2023-12-13T11:17:23.446Z,95632.75
2023-12-13T11:19:57.785Z,95631.75
2023-12-13T11:22:25.510Z,95624.00
2023-12-13T11:25:07.885Z,95627.47
2023-12-13T11:27:35.267Z,95627.66
2023-12-13T11:30:17.118Z,95626.00
2023-12-13T11:32:47.784Z,95634.75
2023-12-13T11:35:21.378Z,95620.72
2023-12-13T11:37:55.417Z,95614.63
2023-12-13T11:40:23.022Z,95612.44
2023-12-13T11:42:51.856Z,95613.91
2023-12-13T11:45:21.100Z,95621.19
2023-12-13T11:47:49.267Z,95614.91
2023-12-13T11:50:18.084Z,95613.44
2023-12-13T11:52:45.741Z,95614.28
2023-12-13T11:55:16.136Z,95611.81
2023-12-13T11:57:45.946Z,95611.81
2023-12-13T12:00:13.003Z,95613.81
2023-12-13T12:02:40.349Z,95608.97
2023-12-13T12:05:09.339Z,95611.44
2023-12-13T12:07:36.550Z,95612.25
2023-12-13T12:10:06.522Z,95604.53
2023-12-13T12:12:36.515Z,95600.88
2023-12-13T12:15:08.321Z,95591.31
2023-12-13T12:17:35.559Z,95601.06
2023-12-13T12:20:04.538Z,95595.97
2023-12-13T12:22:35.431Z,95591.97
2023-12-13T12:25:02.965Z,95600.25
2023-12-13T12:27:30.886Z,95597.59
2023-12-13T12:29:58.358Z,95605.53
2023-12-13T12:32:26.233Z,95604.88
2023-12-13T12:34:53.907Z,95601.97
2023-12-13T12:37:22.031Z,95608.72
2023-12-13T12:39:49.798Z,95605.69
2023-12-13T12:42:17.805Z,95605.25
2023-12-13T12:44:46.398Z,95599.97
2023-12-13T12:47:13.981Z,95604.25
2023-12-13T12:49:41.739Z,95610.16
2023-12-13T12:52:09.994Z,95602.25
2023-12-13T12:54:37.336Z,95596.97
2023-12-13T12:57:05.003Z,95594.97
2023-12-13T12:59:32.964Z,95589.69
2023-12-13T13:02:00.427Z,95584.38
2023-12-13T13:04:28.782Z,95588.84
2023-12-13T13:06:57.700Z,95594.13
2023-12-13T13:09:25.255Z,95589.84
2023-12-13T13:11:52.803Z,95581.94
2023-12-13T13:14:26.413Z,95581.94
2023-12-13T13:16:53.698Z,95579.47
2023-12-13T13:19:23.543Z,95578.66
2023-12-13T13:21:52.680Z,95570.28
2023-12-13T13:24:21.666Z,95576.47
2023-12-13T13:26:49.332Z,95570.81
2023-12-13T13:29:18.047Z,95573.28
2023-12-13T13:31:45.908Z,95572.66
2023-12-13T13:34:13.436Z,95577.38
2023-12-13T13:36:40.903Z,95578.19
2023-12-13T13:39:11.433Z,95578.38
2023-12-13T13:41:39.694Z,95582.66
2023-12-13T13:44:07.501Z,95576.56
2023-12-13T13:46:34.871Z,95584.66
2023-12-13T13:49:03.381Z,95582.66
2023-12-13T13:51:31.586Z,95577.19
2023-12-13T13:53:59.332Z,95578.56
2023-12-13T13:56:30.968Z,95582.03
2023-12-13T13:59:04.290Z,95578.38
2023-12-13T14:01:32.756Z,95589.78
2023-12-13T14:04:02.738Z,95587.13
2023-12-13T14:06:30.544Z,95587.94
2023-12-13T14:08:57.420Z,95580.22
2023-12-13T14:11:25.587Z,95592.59
2023-12-13T14:13:52.393Z,95595.25
2023-12-13T14:16:19.381Z,95587.03
2023-12-13T14:18:46.345Z,95596.59
2023-12-13T14:21:13.457Z,95606.97
2023-12-13T14:23:40.283Z,95593.50
2023-12-13T14:26:07.286Z,95598.59
2023-12-13T14:28:34.127Z,95607.81
2023-12-13T14:31:04.975Z,95604.53
2023-12-13T14:33:32.687Z,95604.69
2023-12-13T14:35:59.730Z,95615.91
2023-12-13T14:38:27.819Z,95606.53
2023-12-13T14:40:55.826Z,95612.25
2023-12-13T14:43:23.661Z,95610.81
2023-12-13T14:45:52.428Z,95617.72
2023-12-13T14:48:20.169Z,95618.56
2023-12-13T14:50:49.931Z,95614.28
2023-12-13T14:53:19.004Z,95624.47
2023-12-13T14:55:47.729Z,95626.13
2023-12-13T14:58:15.158Z,95621.19
2023-12-13T15:00:43.132Z,95622.19
2023-12-13T15:03:11.118Z,95623.84
2023-12-13T15:05:38.454Z,95620.00
2023-12-13T15:08:08.251Z,95615.56
2023-12-13T15:10:35.797Z,95623.66
2023-12-13T15:13:06.832Z,95622.47
2023-12-13T15:15:36.050Z,95619.19
2023-12-13T15:18:04.026Z,95617.56
2023-12-13T15:20:35.063Z,95627.94
2023-12-13T15:23:03.436Z,95622.84
2023-12-13T15:25:31.089Z,95632.59
2023-12-13T15:27:58.573Z,95620.72
2023-12-13T15:30:28.788Z,95625.66
2023-12-13T15:32:56.931Z,95631.75
2023-12-13T15:35:24.177Z,95630.94
2023-12-13T15:37:52.404Z,95625.66
2023-12-13T15:40:19.816Z,95635.41
2023-12-13T15:42:48.083Z,95637.22
2023-12-13T15:45:15.597Z,95631.47
2023-12-13T15:47:42.952Z,95638.88
2023-12-13T15:50:10.522Z,95633.59
2023-12-13T15:52:42.572Z,95627.84
2023-12-13T15:55:10.049Z,95626.00
2023-12-13T15:57:37.854Z,95633.59
2023-12-13T16:00:05.759Z,95637.41
2023-12-13T16:02:32.956Z,95636.41
2023-12-13T16:05:00.255Z,95631.13
2023-12-13T16:07:27.705Z,95635.59
2023-12-13T16:09:55.068Z,95636.22
2023-12-13T16:12:22.896Z,95649.59
2023-12-13T16:14:50.246Z,95633.13
2023-12-13T16:17:21.181Z,95634.59
2023-12-13T16:19:48.346Z,95637.22
2023-12-13T16:22:15.886Z,95628.47
2023-12-13T16:24:45.360Z,95631.94
2023-12-13T16:27:18.182Z,95628.03
2023-12-13T16:29:45.996Z,95630.31
2023-12-13T16:32:13.964Z,95628.28
2023-12-13T16:34:41.788Z,95634.94
2023-12-13T16:37:09.881Z,95641.50
2023-12-13T16:39:37.731Z,95639.50
2023-12-13T16:42:05.414Z,95631.75
2023-12-13T16:44:33.451Z,95633.41
2023-12-13T16:47:00.955Z,95625.66
2023-12-13T16:49:28.977Z,95639.97
2023-12-13T16:51:57.653Z,95640.16
2023-12-13T16:54:24.929Z,95649.72
2023-12-13T16:56:52.785Z,95650.72
2023-12-13T16:59:20.348Z,95650.06
2023-12-13T17:01:48.460Z,95657.81
2023-12-13T17:04:15.617Z,95650.06
2023-12-13T17:06:43.535Z,95650.25
2023-12-13T17:09:14.205Z,95643.31
2023-12-13T17:11:42.635Z,95644.97
2023-12-13T17:14:10.143Z,95644.16
2023-12-13T17:16:38.087Z,95648.25
2023-12-13T17:19:10.027Z,95658.81
2023-12-13T17:21:40.408Z,95672.84
2023-12-13T17:24:09.344Z,95669.91
2023-12-13T17:26:38.545Z,95668.28
2023-12-13T17:29:06.205Z,95679.84
2023-12-13T17:31:33.490Z,95673.09
2023-12-13T17:34:00.844Z,95671.47
2023-12-13T17:36:28.659Z,95673.09
2023-12-13T17:38:55.951Z,95682.03
2023-12-13T17:41:23.496Z,95690.94
2023-12-13T17:43:51.765Z,95675.63
2023-12-13T17:46:19.014Z,95688.47
2023-12-13T17:48:46.597Z,95699.41
2023-12-13T17:51:14.657Z,95710.63
2023-12-13T17:53:42.611Z,95706.31
2023-12-13T17:56:09.688Z,95712.44
2023-12-13T17:58:36.660Z,95712.44
2023-12-13T18:01:03.574Z,95710.63
2023-12-13T18:03:32.885Z,95713.59
2023-12-13T18:06:00.073Z,95713.59
2023-12-13T18:08:27.961Z,95705.50
2023-12-13T18:10:55.137Z,95710.78
2023-12-13T18:13:23.322Z,95703.41
2023-12-13T18:15:51.079Z,95716.06
2023-12-13T18:18:21.511Z,95707.50
2023-12-13T18:20:48.945Z,95712.78
2023-12-13T18:23:16.327Z,95711.78
2023-12-13T18:25:44.386Z,95716.59
2023-12-13T18:28:12.362Z,95720.72
2023-12-13T18:30:39.661Z,95718.25
2023-12-13T18:33:07.278Z,95724.81
2023-12-13T18:35:34.573Z,95731.09
2023-12-13T18:38:05.500Z,95732.75
2023-12-13T18:40:33.322Z,95737.38
2023-12-13T18:43:00.763Z,95743.31
2023-12-13T18:45:28.733Z,95744.94
2023-12-13T18:47:56.228Z,95746.59
2023-12-13T18:50:23.778Z,95747.59
2023-12-13T18:52:51.181Z,95739.19
2023-12-13T18:55:21.002Z,95755.88
2023-12-13T18:57:50.026Z,95765.44
2023-12-13T19:00:18.325Z,95764.13
2023-12-13T19:02:46.058Z,95773.34
2023-12-13T19:05:13.730Z,95764.78
2023-12-13T19:07:41.404Z,95763.13
2023-12-13T19:10:11.419Z,95772.06
2023-12-13T19:12:39.593Z,95773.69
2023-12-13T19:15:08.355Z,95777.34
2023-12-13T19:17:36.687Z,95778.34
2023-12-13T19:20:07.990Z,95783.91
2023-12-13T19:22:35.234Z,95775.34
2023-12-13T19:25:02.095Z,95776.69
2023-12-13T19:27:28.892Z,95776.06
2023-12-13T19:29:55.575Z,95781.97
2023-12-13T19:32:22.617Z,95783.81
2023-12-13T19:34:50.149Z,95781.16
2023-12-13T19:37:17.093Z,95781.97
2023-12-13T19:39:43.800Z,95790.19
2023-12-13T19:42:11.736Z,95796.47
2023-12-13T19:44:38.692Z,95791.19
2023-12-13T19:47:07.162Z,95796.47
2023-12-13T19:49:34.044Z,95799.13
2023-12-13T19:52:00.796Z,95796.66
2023-12-13T19:54:28.347Z,95802.94
2023-12-13T19:56:55.115Z,95811.69
2023-12-13T19:59:21.909Z,95818.59
2023-12-13T20:01:48.688Z,95808.03
2023-12-13T20:04:15.839Z,95819.78
2023-12-13T20:06:42.822Z,95806.41
2023-12-13T20:09:09.607Z,95814.31
2023-12-13T20:11:36.386Z,95814.13
2023-12-13T20:14:05.538Z,95812.69
2023-12-13T20:16:32.834Z,95821.25
2023-12-13T20:18:59.633Z,95816.78
2023-12-13T20:21:27.802Z,95816.31
2023-12-13T20:23:54.637Z,95820.41
2023-12-13T20:26:21.496Z,95809.56
2023-12-13T20:28:48.216Z,95814.31
2023-12-13T20:31:15.003Z,95818.78
2023-12-13T20:33:41.908Z,95821.41
2023-12-13T20:36:11.611Z,95817.97
2023-12-13T20:38:39.155Z,95818.78
2023-12-13T20:41:08.392Z,95820.59
2023-12-13T20:43:35.428Z,95823.25
2023-12-13T20:46:02.974Z,95826.06
2023-12-13T20:48:29.747Z,95824.41
2023-12-13T20:50:56.611Z,95821.47
2023-12-13T20:53:25.188Z,95828.88
2023-12-13T20:55:52.732Z,95832.50
2023-12-13T20:58:20.433Z,95847.34
2023-12-13T21:00:48.636Z,95848.00
2023-12-13T21:03:16.214Z,95849.81
2023-12-13T21:05:44.074Z,95858.91
2023-12-13T21:08:11.326Z,95858.13
2023-12-13T21:10:39.308Z,95856.97
2023-12-13T21:13:06.508Z,95851.38
2023-12-13T21:15:34.150Z,95855.31
2023-12-13T21:18:01.533Z,95865.22
2023-12-13T21:20:29.881Z,95869.25
2023-12-13T21:23:01.974Z,95859.66
2023-12-13T21:25:33.132Z,95866.34
2023-12-13T21:28:02.800Z,95860.94
2023-12-13T21:30:30.278Z,95868.88
2023-12-13T21:32:57.773Z,95879.72
2023-12-13T21:35:25.303Z,95882.38
2023-12-13T21:37:52.582Z,95877.78
2023-12-13T21:40:19.679Z,95875.44
2023-12-13T21:42:47.173Z,95883.72
2023-12-13T21:45:15.093Z,95886.34
2023-12-13T21:47:42.603Z,95891.19
2023-12-13T21:50:10.558Z,95896.28
2023-12-13T21:52:39.221Z,95895.81
2023-12-13T21:55:07.409Z,95899.44
2023-12-13T21:57:35.037Z,95905.88
2023-12-13T22:00:02.257Z,95902.91
2023-12-13T22:02:29.659Z,95909.84
2023-12-13T22:04:57.156Z,95913.16
2023-12-13T22:07:24.751Z,95917.44
2023-12-13T22:09:52.143Z,95917.59
2023-12-13T22:12:19.876Z,95922.22
2023-12-13T22:14:47.160Z,95934.25
2023-12-13T22:17:20.270Z,95937.38
2023-12-13T22:19:50.919Z,95944.31
2023-12-13T22:22:20.892Z,95948.94
2023-12-13T22:24:49.860Z,95943.81
2023-12-13T22:27:18.167Z,95948.75
2023-12-13T22:29:45.506Z,95949.56
2023-12-13T22:32:12.898Z,95948.94
2023-12-13T22:34:40.327Z,95963.91
2023-12-13T22:37:07.655Z,95973.47
2023-12-13T22:39:35.123Z,95978.63
2023-12-13T22:42:05.144Z,95978.47
2023-12-13T22:44:31.997Z,95986.25
2023-12-13T22:46:58.746Z,95984.41
2023-12-13T22:49:25.494Z,95988.06
2023-12-13T22:52:18.914Z,95985.22
2023-12-13T22:54:39.402Z,95985.75
2023-12-13T22:57:06.109Z,95986.72
2023-12-13T22:59:32.851Z,95992.84
2023-12-13T23:02:01.484Z,95999.09
2023-12-13T23:04:30.332Z,95998.28
2023-12-13T23:06:57.247Z,96006.53
2023-12-13T23:09:24.563Z,96014.13
2023-12-13T23:11:51.709Z,96015.59
2023-12-13T23:14:18.886Z,96022.03
2023-12-13T23:16:45.716Z,96029.31
2023-12-13T23:19:12.623Z,96028.47
2023-12-13T23:21:39.422Z,96029.16
2023-12-13T23:24:06.384Z,96033.09
2023-12-13T23:26:33.344Z,96033.59
2023-12-13T23:29:00.098Z,96028.47
2023-12-13T23:31:33.411Z,96032.44
2023-12-13T23:34:06.041Z,96035.56
2023-12-13T23:36:34.781Z,96043.16
2023-12-13T23:39:01.772Z,96042.16
2023-12-13T23:41:28.804Z,96044.16
2023-12-13T23:43:55.772Z,96044.16
2023-12-13T23:46:22.572Z,96051.09
2023-12-13T23:48:49.487Z,96051.41
2023-12-13T23:51:16.543Z,96059.97
2023-12-13T23:53:43.495Z,96055.03
2023-12-13T23:56:24.146Z,96067.25
2023-12-13T23:58:51.457Z,96056.69
